sensor_id;sensor_type;location;lat;lon;timestamp;P1;durP1;ratioP1;P2;durP2;ratioP2
30635;SDS011;17400;52.392;9.750;2023-06-26T00:01:45;8.75;;;7.03;;
30635;SDS011;17400;52.392;9.750;2023-06-26T00:04:14;9.55;;;7.55;;
30635;SDS011;17400;52.392;9.750;2023-06-26T00:06:42;9.13;;;6.82;;
30635;SDS011;17400;52.392;9.750;2023-06-26T00:09:11;7.93;;;6.75;;
30635;SDS011;17400;52.392;9.750;2023-06-26T00:11:39;8.25;;;6.78;;
30635;SDS011;17400;52.392;9.750;2023-06-26T00:14:07;8.40;;;6.47;;
30635;SDS011;17400;52.392;9.750;2023-06-26T00:16:35;10.60;;;8.35;;
30635;SDS011;17400;52.392;9.750;2023-06-26T00:19:03;8.27;;;6.88;;
30635;SDS011;17400;52.392;9.750;2023-06-26T00:21:31;9.63;;;8.18;;
30635;SDS011;17400;52.392;9.750;2023-06-26T00:23:59;9.52;;;7.22;;
30635;SDS011;17400;52.392;9.750;2023-06-26T00:26:28;8.85;;;6.70;;
30635;SDS011;17400;52.392;9.750;2023-06-26T00:28:56;8.80;;;7.10;;
30635;SDS011;17400;52.392;9.750;2023-06-26T00:31:24;9.90;;;7.85;;
30635;SDS011;17400;52.392;9.750;2023-06-26T00:33:52;8.82;;;6.30;;
30635;SDS011;17400;52.392;9.750;2023-06-26T00:36:19;9.52;;;7.20;;
30635;SDS011;17400;52.392;9.750;2023-06-26T00:38:49;8.25;;;6.82;;
30635;SDS011;17400;52.392;9.750;2023-06-26T00:41:17;9.48;;;7.55;;
30635;SDS011;17400;52.392;9.750;2023-06-26T00:43:46;10.02;;;6.88;;
30635;SDS011;17400;52.392;9.750;2023-06-26T00:46:14;9.18;;;7.63;;
30635;SDS011;17400;52.392;9.750;2023-06-26T00:48:43;10.43;;;8.10;;
30635;SDS011;17400;52.392;9.750;2023-06-26T00:51:13;8.63;;;7.65;;
30635;SDS011;17400;52.392;9.750;2023-06-26T00:53:41;8.15;;;6.93;;
30635;SDS011;17400;52.392;9.750;2023-06-26T00:56:10;7.85;;;6.85;;
30635;SDS011;17400;52.392;9.750;2023-06-26T00:58:41;8.63;;;6.82;;
30635;SDS011;17400;52.392;9.750;2023-06-26T01:01:11;9.23;;;7.78;;
30635;SDS011;17400;52.392;9.750;2023-06-26T01:03:43;8.48;;;6.82;;
30635;SDS011;17400;52.392;9.750;2023-06-26T01:06:13;7.82;;;6.93;;
30635;SDS011;17400;52.392;9.750;2023-06-26T01:08:42;9.05;;;7.18;;
30635;SDS011;17400;52.392;9.750;2023-06-26T01:11:11;9.15;;;7.07;;
30635;SDS011;17400;52.392;9.750;2023-06-26T01:13:41;10.27;;;7.20;;
30635;SDS011;17400;52.392;9.750;2023-06-26T01:16:12;9.77;;;6.80;;
30635;SDS011;17400;52.392;9.750;2023-06-26T01:18:48;10.05;;;6.63;;
30635;SDS011;17400;52.392;9.750;2023-06-26T01:21:17;7.35;;;6.55;;
30635;SDS011;17400;52.392;9.750;2023-06-26T01:23:48;6.70;;;5.97;;
30635;SDS011;17400;52.392;9.750;2023-06-26T01:26:28;7.32;;;6.25;;
30635;SDS011;17400;52.392;9.750;2023-06-26T01:28:58;7.93;;;7.07;;
30635;SDS011;17400;52.392;9.750;2023-06-26T01:31:27;7.88;;;6.15;;
30635;SDS011;17400;52.392;9.750;2023-06-26T01:33:58;8.88;;;6.00;;
30635;SDS011;17400;52.392;9.750;2023-06-26T01:36:26;7.88;;;5.68;;
30635;SDS011;17400;52.392;9.750;2023-06-26T01:38:55;7.35;;;5.95;;
30635;SDS011;17400;52.392;9.750;2023-06-26T01:41:23;7.68;;;5.43;;
30635;SDS011;17400;52.392;9.750;2023-06-26T01:43:57;6.90;;;6.20;;
30635;SDS011;17400;52.392;9.750;2023-06-26T01:46:35;7.35;;;5.82;;
30635;SDS011;17400;52.392;9.750;2023-06-26T01:49:08;7.88;;;6.05;;
30635;SDS011;17400;52.392;9.750;2023-06-26T01:51:46;8.18;;;6.57;;
30635;SDS011;17400;52.392;9.750;2023-06-26T01:54:18;9.98;;;6.50;;
30635;SDS011;17400;52.392;9.750;2023-06-26T01:56:48;9.15;;;6.25;;
30635;SDS011;17400;52.392;9.750;2023-06-26T01:59:20;9.00;;;6.10;;
30635;SDS011;17400;52.392;9.750;2023-06-26T02:01:50;8.35;;;5.88;;
30635;SDS011;17400;52.392;9.750;2023-06-26T02:04:20;7.43;;;5.90;;
30635;SDS011;17400;52.392;9.750;2023-06-26T02:06:47;6.70;;;5.40;;
30635;SDS011;17400;52.392;9.750;2023-06-26T02:09:15;7.55;;;5.93;;
30635;SDS011;17400;52.392;9.750;2023-06-26T02:11:46;9.10;;;5.90;;
30635;SDS011;17400;52.392;9.750;2023-06-26T02:14:15;8.25;;;5.32;;
30635;SDS011;17400;52.392;9.750;2023-06-26T02:16:47;8.95;;;5.28;;
30635;SDS011;17400;52.392;9.750;2023-06-26T02:19:14;9.80;;;6.10;;
30635;SDS011;17400;52.392;9.750;2023-06-26T02:21:48;8.40;;;5.03;;
30635;SDS011;17400;52.392;9.750;2023-06-26T02:24:16;5.85;;;4.80;;
30635;SDS011;17400;52.392;9.750;2023-06-26T02:26:44;6.97;;;4.75;;
30635;SDS011;17400;52.392;9.750;2023-06-26T02:29:13;7.93;;;5.50;;
30635;SDS011;17400;52.392;9.750;2023-06-26T02:31:40;6.95;;;5.53;;
30635;SDS011;17400;52.392;9.750;2023-06-26T02:34:12;6.75;;;5.05;;
30635;SDS011;17400;52.392;9.750;2023-06-26T02:36:40;7.82;;;5.30;;
30635;SDS011;17400;52.392;9.750;2023-06-26T02:39:08;10.00;;;5.85;;
30635;SDS011;17400;52.392;9.750;2023-06-26T02:41:35;22.98;;;6.13;;
30635;SDS011;17400;52.392;9.750;2023-06-26T02:44:03;8.52;;;6.53;;
30635;SDS011;17400;52.392;9.750;2023-06-26T02:46:31;7.05;;;5.60;;
30635;SDS011;17400;52.392;9.750;2023-06-26T02:48:59;8.13;;;5.70;;
30635;SDS011;17400;52.392;9.750;2023-06-26T02:51:29;7.65;;;5.22;;
30635;SDS011;17400;52.392;9.750;2023-06-26T02:53:57;6.57;;;5.07;;
30635;SDS011;17400;52.392;9.750;2023-06-26T02:56:25;6.97;;;5.28;;
30635;SDS011;17400;52.392;9.750;2023-06-26T02:58:55;7.05;;;5.45;;
30635;SDS011;17400;52.392;9.750;2023-06-26T03:01:25;8.20;;;5.90;;
30635;SDS011;17400;52.392;9.750;2023-06-26T03:03:53;8.45;;;5.15;;
30635;SDS011;17400;52.392;9.750;2023-06-26T03:06:21;6.38;;;4.68;;
30635;SDS011;17400;52.392;9.750;2023-06-26T03:08:50;7.28;;;4.82;;
30635;SDS011;17400;52.392;9.750;2023-06-26T03:11:18;6.80;;;4.95;;
30635;SDS011;17400;52.392;9.750;2023-06-26T03:13:46;6.43;;;5.03;;
30635;SDS011;17400;52.392;9.750;2023-06-26T03:16:14;7.95;;;5.60;;
30635;SDS011;17400;52.392;9.750;2023-06-26T03:18:43;7.72;;;4.97;;
30635;SDS011;17400;52.392;9.750;2023-06-26T03:21:12;6.88;;;4.40;;
30635;SDS011;17400;52.392;9.750;2023-06-26T03:23:40;7.50;;;5.75;;
30635;SDS011;17400;52.392;9.750;2023-06-26T03:26:09;6.95;;;4.43;;
30635;SDS011;17400;52.392;9.750;2023-06-26T03:28:37;8.52;;;4.68;;
30635;SDS011;17400;52.392;9.750;2023-06-26T03:31:05;6.93;;;5.25;;
30635;SDS011;17400;52.392;9.750;2023-06-26T03:33:33;6.88;;;4.78;;
30635;SDS011;17400;52.392;9.750;2023-06-26T03:36:01;6.97;;;4.82;;
30635;SDS011;17400;52.392;9.750;2023-06-26T03:38:30;6.43;;;5.05;;
30635;SDS011;17400;52.392;9.750;2023-06-26T03:40:58;5.90;;;4.32;;
30635;SDS011;17400;52.392;9.750;2023-06-26T03:43:27;6.47;;;4.10;;
30635;SDS011;17400;52.392;9.750;2023-06-26T03:45:55;7.68;;;5.20;;
30635;SDS011;17400;52.392;9.750;2023-06-26T03:48:23;7.88;;;4.22;;
30635;SDS011;17400;52.392;9.750;2023-06-26T03:50:51;6.93;;;4.72;;
30635;SDS011;17400;52.392;9.750;2023-06-26T03:53:19;5.00;;;4.35;;
30635;SDS011;17400;52.392;9.750;2023-06-26T03:55:47;5.72;;;4.70;;
30635;SDS011;17400;52.392;9.750;2023-06-26T03:58:15;6.15;;;4.20;;
30635;SDS011;17400;52.392;9.750;2023-06-26T04:00:44;5.40;;;4.15;;
30635;SDS011;17400;52.392;9.750;2023-06-26T04:03:13;5.07;;;4.05;;
30635;SDS011;17400;52.392;9.750;2023-06-26T04:05:41;6.55;;;4.75;;
30635;SDS011;17400;52.392;9.750;2023-06-26T04:08:09;7.80;;;5.57;;
30635;SDS011;17400;52.392;9.750;2023-06-26T04:10:37;9.05;;;5.97;;
30635;SDS011;17400;52.392;9.750;2023-06-26T04:13:05;13.68;;;8.30;;
30635;SDS011;17400;52.392;9.750;2023-06-26T04:15:35;10.20;;;7.20;;
30635;SDS011;17400;52.392;9.750;2023-06-26T04:18:05;6.85;;;4.70;;
30635;SDS011;17400;52.392;9.750;2023-06-26T04:20:38;6.40;;;4.70;;
30635;SDS011;17400;52.392;9.750;2023-06-26T04:23:11;6.45;;;4.25;;
30635;SDS011;17400;52.392;9.750;2023-06-26T04:25:39;4.90;;;3.92;;
30635;SDS011;17400;52.392;9.750;2023-06-26T04:28:07;6.80;;;4.55;;
30635;SDS011;17400;52.392;9.750;2023-06-26T04:30:35;13.23;;;7.03;;
30635;SDS011;17400;52.392;9.750;2023-06-26T04:33:08;7.90;;;5.20;;
30635;SDS011;17400;52.392;9.750;2023-06-26T04:35:38;6.78;;;4.25;;
30635;SDS011;17400;52.392;9.750;2023-06-26T04:38:06;6.43;;;4.07;;
30635;SDS011;17400;52.392;9.750;2023-06-26T04:40:35;6.72;;;4.50;;
30635;SDS011;17400;52.392;9.750;2023-06-26T04:43:04;5.90;;;4.40;;
30635;SDS011;17400;52.392;9.750;2023-06-26T04:45:32;7.97;;;4.28;;
30635;SDS011;17400;52.392;9.750;2023-06-26T04:48:03;6.25;;;4.53;;
30635;SDS011;17400;52.392;9.750;2023-06-26T04:50:33;6.35;;;5.38;;
30635;SDS011;17400;52.392;9.750;2023-06-26T04:53:02;6.22;;;4.57;;
30635;SDS011;17400;52.392;9.750;2023-06-26T04:55:30;5.40;;;4.13;;
30635;SDS011;17400;52.392;9.750;2023-06-26T04:57:58;7.00;;;5.35;;
30635;SDS011;17400;52.392;9.750;2023-06-26T05:00:26;7.18;;;4.50;;
30635;SDS011;17400;52.392;9.750;2023-06-26T05:02:54;6.75;;;4.80;;
30635;SDS011;17400;52.392;9.750;2023-06-26T05:05:28;8.68;;;5.00;;
30635;SDS011;17400;52.392;9.750;2023-06-26T05:07:58;5.95;;;4.78;;
30635;SDS011;17400;52.392;9.750;2023-06-26T05:10:26;7.40;;;4.35;;
30635;SDS011;17400;52.392;9.750;2023-06-26T05:12:54;6.75;;;4.97;;
30635;SDS011;17400;52.392;9.750;2023-06-26T05:15:22;7.57;;;4.70;;
30635;SDS011;17400;52.392;9.750;2023-06-26T05:17:50;6.07;;;4.20;;
30635;SDS011;17400;52.392;9.750;2023-06-26T05:20:18;5.35;;;4.43;;
30635;SDS011;17400;52.392;9.750;2023-06-26T05:22:47;5.93;;;4.30;;
30635;SDS011;17400;52.392;9.750;2023-06-26T05:25:18;7.97;;;5.18;;
30635;SDS011;17400;52.392;9.750;2023-06-26T05:27:48;5.75;;;4.00;;
30635;SDS011;17400;52.392;9.750;2023-06-26T05:30:17;7.78;;;5.40;;
30635;SDS011;17400;52.392;9.750;2023-06-26T05:32:46;7.03;;;4.93;;
30635;SDS011;17400;52.392;9.750;2023-06-26T05:35:15;7.40;;;4.82;;
30635;SDS011;17400;52.392;9.750;2023-06-26T05:37:45;7.40;;;5.20;;
30635;SDS011;17400;52.392;9.750;2023-06-26T05:40:16;7.55;;;4.80;;
30635;SDS011;17400;52.392;9.750;2023-06-26T05:42:47;8.60;;;5.38;;
30635;SDS011;17400;52.392;9.750;2023-06-26T05:45:18;6.90;;;4.57;;
30635;SDS011;17400;52.392;9.750;2023-06-26T05:47:46;6.78;;;5.03;;
30635;SDS011;17400;52.392;9.750;2023-06-26T05:50:16;5.30;;;4.35;;
30635;SDS011;17400;52.392;9.750;2023-06-26T05:52:45;5.45;;;3.95;;
30635;SDS011;17400;52.392;9.750;2023-06-26T05:55:14;7.15;;;5.18;;
30635;SDS011;17400;52.392;9.750;2023-06-26T05:57:52;9.60;;;5.75;;
30635;SDS011;17400;52.392;9.750;2023-06-26T06:00:21;7.57;;;5.05;;
30635;SDS011;17400;52.392;9.750;2023-06-26T06:02:49;7.45;;;4.22;;
30635;SDS011;17400;52.392;9.750;2023-06-26T06:05:20;5.40;;;4.15;;
30635;SDS011;17400;52.392;9.750;2023-06-26T06:07:49;7.53;;;5.00;;
30635;SDS011;17400;52.392;9.750;2023-06-26T06:10:17;6.88;;;5.28;;
30635;SDS011;17400;52.392;9.750;2023-06-26T06:12:48;6.60;;;4.63;;
30635;SDS011;17400;52.392;9.750;2023-06-26T06:15:17;9.13;;;5.07;;
30635;SDS011;17400;52.392;9.750;2023-06-26T06:17:45;9.50;;;5.28;;
30635;SDS011;17400;52.392;9.750;2023-06-26T06:20:16;5.93;;;4.07;;
30635;SDS011;17400;52.392;9.750;2023-06-26T06:22:46;9.63;;;5.43;;
30635;SDS011;17400;52.392;9.750;2023-06-26T06:25:15;8.23;;;4.80;;
30635;SDS011;17400;52.392;9.750;2023-06-26T06:27:44;7.63;;;5.43;;
30635;SDS011;17400;52.392;9.750;2023-06-26T06:30:13;6.75;;;5.13;;
30635;SDS011;17400;52.392;9.750;2023-06-26T06:32:41;8.98;;;4.43;;
30635;SDS011;17400;52.392;9.750;2023-06-26T06:35:09;6.97;;;5.25;;
30635;SDS011;17400;52.392;9.750;2023-06-26T06:37:38;9.52;;;4.32;;
30635;SDS011;17400;52.392;9.750;2023-06-26T06:40:06;7.68;;;4.93;;
30635;SDS011;17400;52.392;9.750;2023-06-26T06:42:37;7.03;;;4.70;;
30635;SDS011;17400;52.392;9.750;2023-06-26T06:45:06;7.35;;;5.28;;
30635;SDS011;17400;52.392;9.750;2023-06-26T06:47:35;7.20;;;4.45;;
30635;SDS011;17400;52.392;9.750;2023-06-26T06:50:03;10.10;;;4.88;;
30635;SDS011;17400;52.392;9.750;2023-06-26T06:52:36;6.13;;;4.50;;
30635;SDS011;17400;52.392;9.750;2023-06-26T06:55:05;8.00;;;4.63;;
30635;SDS011;17400;52.392;9.750;2023-06-26T06:57:36;7.15;;;5.20;;
30635;SDS011;17400;52.392;9.750;2023-06-26T07:00:06;7.32;;;5.28;;
30635;SDS011;17400;52.392;9.750;2023-06-26T07:02:38;8.73;;;4.47;;
30635;SDS011;17400;52.392;9.750;2023-06-26T07:05:07;7.10;;;5.05;;
30635;SDS011;17400;52.392;9.750;2023-06-26T07:07:36;7.38;;;4.78;;
30635;SDS011;17400;52.392;9.750;2023-06-26T07:10:06;8.40;;;6.30;;
30635;SDS011;17400;52.392;9.750;2023-06-26T07:12:36;11.38;;;5.47;;
30635;SDS011;17400;52.392;9.750;2023-06-26T07:15:07;6.38;;;5.00;;
30635;SDS011;17400;52.392;9.750;2023-06-26T07:17:35;6.20;;;4.93;;
30635;SDS011;17400;52.392;9.750;2023-06-26T07:20:06;6.97;;;5.07;;
30635;SDS011;17400;52.392;9.750;2023-06-26T07:22:36;9.40;;;5.22;;
30635;SDS011;17400;52.392;9.750;2023-06-26T07:25:06;8.18;;;4.45;;
30635;SDS011;17400;52.392;9.750;2023-06-26T07:27:36;8.45;;;5.43;;
30635;SDS011;17400;52.392;9.750;2023-06-26T07:30:04;8.68;;;5.22;;
30635;SDS011;17400;52.392;9.750;2023-06-26T07:32:35;9.02;;;5.82;;
30635;SDS011;17400;52.392;9.750;2023-06-26T07:35:05;5.85;;;4.57;;
30635;SDS011;17400;52.392;9.750;2023-06-26T07:37:33;6.97;;;4.93;;
30635;SDS011;17400;52.392;9.750;2023-06-26T07:40:02;8.82;;;5.63;;
30635;SDS011;17400;52.392;9.750;2023-06-26T07:42:31;6.85;;;5.13;;
30635;SDS011;17400;52.392;9.750;2023-06-26T07:44:58;9.63;;;5.93;;
30635;SDS011;17400;52.392;9.750;2023-06-26T07:47:26;8.43;;;5.25;;
30635;SDS011;17400;52.392;9.750;2023-06-26T07:49:55;6.95;;;5.15;;
30635;SDS011;17400;52.392;9.750;2023-06-26T07:52:25;7.20;;;5.68;;
30635;SDS011;17400;52.392;9.750;2023-06-26T07:54:52;7.28;;;5.40;;
30635;SDS011;17400;52.392;9.750;2023-06-26T07:57:21;6.57;;;5.22;;
30635;SDS011;17400;52.392;9.750;2023-06-26T07:59:50;9.20;;;5.45;;
30635;SDS011;17400;52.392;9.750;2023-06-26T08:02:18;8.30;;;5.82;;
30635;SDS011;17400;52.392;9.750;2023-06-26T08:04:46;6.18;;;5.20;;
30635;SDS011;17400;52.392;9.750;2023-06-26T08:07:14;8.70;;;5.85;;
30635;SDS011;17400;52.392;9.750;2023-06-26T08:09:44;7.38;;;6.15;;
30635;SDS011;17400;52.392;9.750;2023-06-26T08:12:11;13.35;;;5.90;;
30635;SDS011;17400;52.392;9.750;2023-06-26T08:14:40;8.07;;;4.88;;
30635;SDS011;17400;52.392;9.750;2023-06-26T08:17:08;6.63;;;5.40;;
30635;SDS011;17400;52.392;9.750;2023-06-26T08:19:35;6.93;;;5.70;;
30635;SDS011;17400;52.392;9.750;2023-06-26T08:22:04;5.70;;;4.20;;
30635;SDS011;17400;52.392;9.750;2023-06-26T08:24:33;6.10;;;4.82;;
30635;SDS011;17400;52.392;9.750;2023-06-26T08:27:05;8.25;;;5.38;;
30635;SDS011;17400;52.392;9.750;2023-06-26T08:29:34;8.68;;;6.05;;
30635;SDS011;17400;52.392;9.750;2023-06-26T08:32:02;8.10;;;5.90;;
30635;SDS011;17400;52.392;9.750;2023-06-26T08:34:30;8.27;;;5.72;;
30635;SDS011;17400;52.392;9.750;2023-06-26T08:36:58;8.15;;;5.55;;
30635;SDS011;17400;52.392;9.750;2023-06-26T08:39:28;8.25;;;6.43;;
30635;SDS011;17400;52.392;9.750;2023-06-26T08:41:56;10.52;;;6.88;;
30635;SDS011;17400;52.392;9.750;2023-06-26T08:44:25;13.88;;;6.60;;
30635;SDS011;17400;52.392;9.750;2023-06-26T08:46:53;7.25;;;6.07;;
30635;SDS011;17400;52.392;9.750;2023-06-26T08:49:25;7.43;;;5.72;;
30635;SDS011;17400;52.392;9.750;2023-06-26T08:51:57;8.00;;;5.90;;
30635;SDS011;17400;52.392;9.750;2023-06-26T08:54:31;8.95;;;6.50;;
30635;SDS011;17400;52.392;9.750;2023-06-26T08:57:05;8.10;;;6.35;;
30635;SDS011;17400;52.392;9.750;2023-06-26T08:59:35;7.03;;;5.80;;
30635;SDS011;17400;52.392;9.750;2023-06-26T09:02:06;9.00;;;6.40;;
30635;SDS011;17400;52.392;9.750;2023-06-26T09:04:34;9.85;;;7.10;;
30635;SDS011;17400;52.392;9.750;2023-06-26T09:07:04;11.05;;;7.45;;
30635;SDS011;17400;52.392;9.750;2023-06-26T09:09:33;11.20;;;7.63;;
30635;SDS011;17400;52.392;9.750;2023-06-26T09:12:01;10.27;;;7.57;;
30635;SDS011;17400;52.392;9.750;2023-06-26T09:14:29;10.68;;;8.35;;
30635;SDS011;17400;52.392;9.750;2023-06-26T09:16:59;9.95;;;7.28;;
30635;SDS011;17400;52.392;9.750;2023-06-26T09:19:27;12.68;;;8.27;;
30635;SDS011;17400;52.392;9.750;2023-06-26T09:21:55;11.23;;;8.13;;
30635;SDS011;17400;52.392;9.750;2023-06-26T09:24:23;9.05;;;7.18;;
30635;SDS011;17400;52.392;9.750;2023-06-26T09:26:53;11.68;;;7.30;;
30635;SDS011;17400;52.392;9.750;2023-06-26T09:29:21;9.10;;;7.75;;
30635;SDS011;17400;52.392;9.750;2023-06-26T09:31:51;10.10;;;7.40;;
30635;SDS011;17400;52.392;9.750;2023-06-26T09:34:21;12.93;;;7.95;;
30635;SDS011;17400;52.392;9.750;2023-06-26T09:36:52;10.48;;;7.57;;
30635;SDS011;17400;52.392;9.750;2023-06-26T09:39:20;13.13;;;9.48;;
30635;SDS011;17400;52.392;9.750;2023-06-26T09:41:48;11.02;;;9.07;;
30635;SDS011;17400;52.392;9.750;2023-06-26T09:44:17;14.38;;;9.02;;
30635;SDS011;17400;52.392;9.750;2023-06-26T09:46:45;9.70;;;7.57;;
30635;SDS011;17400;52.392;9.750;2023-06-26T09:49:13;11.13;;;8.30;;
30635;SDS011;17400;52.392;9.750;2023-06-26T09:51:43;10.82;;;8.68;;
30635;SDS011;17400;52.392;9.750;2023-06-26T09:54:10;13.23;;;8.77;;
30635;SDS011;17400;52.392;9.750;2023-06-26T09:56:38;11.15;;;8.40;;
30635;SDS011;17400;52.392;9.750;2023-06-26T09:59:07;10.40;;;7.72;;
30635;SDS011;17400;52.392;9.750;2023-06-26T10:01:40;12.95;;;8.65;;
30635;SDS011;17400;52.392;9.750;2023-06-26T10:04:12;9.93;;;7.65;;
30635;SDS011;17400;52.392;9.750;2023-06-26T10:06:43;11.35;;;8.48;;
30635;SDS011;17400;52.392;9.750;2023-06-26T10:09:14;11.18;;;8.32;;
30635;SDS011;17400;52.392;9.750;2023-06-26T10:11:46;12.63;;;8.70;;
30635;SDS011;17400;52.392;9.750;2023-06-26T10:14:16;9.98;;;7.70;;
30635;SDS011;17400;52.392;9.750;2023-06-26T10:16:45;14.48;;;9.55;;
30635;SDS011;17400;52.392;9.750;2023-06-26T10:19:16;10.40;;;8.20;;
30635;SDS011;17400;52.392;9.750;2023-06-26T10:21:52;11.57;;;8.07;;
30635;SDS011;17400;52.392;9.750;2023-06-26T10:24:22;13.63;;;8.10;;
30635;SDS011;17400;52.392;9.750;2023-06-26T10:26:52;14.98;;;9.43;;
30635;SDS011;17400;52.392;9.750;2023-06-26T10:29:24;10.35;;;6.90;;
30635;SDS011;17400;52.392;9.750;2023-06-26T10:31:54;10.60;;;6.70;;
30635;SDS011;17400;52.392;9.750;2023-06-26T10:34:24;9.77;;;5.90;;
30635;SDS011;17400;52.392;9.750;2023-06-26T10:37:02;13.45;;;6.80;;
30635;SDS011;17400;52.392;9.750;2023-06-26T10:39:46;9.48;;;6.72;;
30635;SDS011;17400;52.392;9.750;2023-06-26T10:42:16;10.60;;;6.53;;
30635;SDS011;17400;52.392;9.750;2023-06-26T10:44:46;9.35;;;6.35;;
30635;SDS011;17400;52.392;9.750;2023-06-26T10:47:28;10.15;;;7.28;;
30635;SDS011;17400;52.392;9.750;2023-06-26T10:53:13;10.30;;;7.32;;
30635;SDS011;17400;52.392;9.750;2023-06-26T10:55:48;11.75;;;7.35;;
30635;SDS011;17400;52.392;9.750;2023-06-26T10:58:27;15.40;;;7.60;;
30635;SDS011;17400;52.392;9.750;2023-06-26T11:03:49;13.15;;;7.72;;
30635;SDS011;17400;52.392;9.750;2023-06-26T11:06:29;10.82;;;8.45;;
30635;SDS011;17400;52.392;9.750;2023-06-26T11:09:08;10.10;;;7.88;;
30635;SDS011;17400;52.392;9.750;2023-06-26T11:11:57;9.85;;;8.68;;
30635;SDS011;17400;52.392;9.750;2023-06-26T11:14:29;11.90;;;8.18;;
30635;SDS011;17400;52.392;9.750;2023-06-26T11:16:58;13.23;;;9.10;;
30635;SDS011;17400;52.392;9.750;2023-06-26T11:19:29;9.88;;;8.57;;
30635;SDS011;17400;52.392;9.750;2023-06-26T11:21:59;12.52;;;9.00;;
30635;SDS011;17400;52.392;9.750;2023-06-26T11:24:31;10.02;;;8.40;;
30635;SDS011;17400;52.392;9.750;2023-06-26T11:27:01;11.23;;;8.32;;
30635;SDS011;17400;52.392;9.750;2023-06-26T11:29:32;10.65;;;8.68;;
30635;SDS011;17400;52.392;9.750;2023-06-26T11:32:02;13.05;;;7.78;;
30635;SDS011;17400;52.392;9.750;2023-06-26T11:34:33;9.32;;;7.72;;
30635;SDS011;17400;52.392;9.750;2023-06-26T11:37:01;16.35;;;9.63;;
30635;SDS011;17400;52.392;9.750;2023-06-26T11:39:33;11.05;;;8.05;;
30635;SDS011;17400;52.392;9.750;2023-06-26T11:42:01;10.60;;;9.00;;
30635;SDS011;17400;52.392;9.750;2023-06-26T11:44:30;10.25;;;8.35;;
30635;SDS011;17400;52.392;9.750;2023-06-26T11:46:58;12.60;;;8.13;;
30635;SDS011;17400;52.392;9.750;2023-06-26T11:49:26;11.52;;;8.05;;
30635;SDS011;17400;52.392;9.750;2023-06-26T11:51:56;12.13;;;8.30;;
30635;SDS011;17400;52.392;9.750;2023-06-26T11:54:25;10.30;;;8.68;;
30635;SDS011;17400;52.392;9.750;2023-06-26T11:56:56;10.43;;;8.27;;
30635;SDS011;17400;52.392;9.750;2023-06-26T11:59:32;7.53;;;6.30;;
30635;SDS011;17400;52.392;9.750;2023-06-26T12:02:04;8.23;;;5.57;;
30635;SDS011;17400;52.392;9.750;2023-06-26T12:04:35;11.55;;;5.45;;
30635;SDS011;17400;52.392;9.750;2023-06-26T12:07:06;7.60;;;4.93;;
30635;SDS011;17400;52.392;9.750;2023-06-26T12:09:40;5.35;;;4.75;;
30635;SDS011;17400;52.392;9.750;2023-06-26T12:12:12;9.35;;;4.03;;
30635;SDS011;17400;52.392;9.750;2023-06-26T12:14:42;4.80;;;3.55;;
30635;SDS011;17400;52.392;9.750;2023-06-26T12:17:11;6.90;;;3.45;;
30635;SDS011;17400;52.392;9.750;2023-06-26T12:19:43;6.45;;;3.80;;
30635;SDS011;17400;52.392;9.750;2023-06-26T12:22:16;5.80;;;3.30;;
30635;SDS011;17400;52.392;9.750;2023-06-26T12:24:45;6.43;;;3.33;;
30635;SDS011;17400;52.392;9.750;2023-06-26T12:27:17;6.25;;;3.33;;
30635;SDS011;17400;52.392;9.750;2023-06-26T12:29:50;6.55;;;3.13;;
30635;SDS011;17400;52.392;9.750;2023-06-26T12:32:20;5.32;;;3.35;;
30635;SDS011;17400;52.392;9.750;2023-06-26T12:34:50;5.13;;;3.38;;
30635;SDS011;17400;52.392;9.750;2023-06-26T12:37:18;4.35;;;2.78;;
30635;SDS011;17400;52.392;9.750;2023-06-26T12:39:46;5.93;;;3.60;;
30635;SDS011;17400;52.392;9.750;2023-06-26T12:42:17;5.65;;;3.30;;
30635;SDS011;17400;52.392;9.750;2023-06-26T12:44:47;4.03;;;2.75;;
30635;SDS011;17400;52.392;9.750;2023-06-26T12:47:15;5.55;;;3.30;;
30635;SDS011;17400;52.392;9.750;2023-06-26T12:49:45;5.57;;;2.78;;
30635;SDS011;17400;52.392;9.750;2023-06-26T12:52:17;6.15;;;3.63;;
30635;SDS011;17400;52.392;9.750;2023-06-26T12:54:51;5.10;;;3.58;;
30635;SDS011;17400;52.392;9.750;2023-06-26T12:57:21;6.47;;;4.32;;
30635;SDS011;17400;52.392;9.750;2023-06-26T12:59:49;6.00;;;3.53;;
30635;SDS011;17400;52.392;9.750;2023-06-26T13:02:17;3.85;;;2.80;;
30635;SDS011;17400;52.392;9.750;2023-06-26T13:04:46;6.05;;;3.00;;
30635;SDS011;17400;52.392;9.750;2023-06-26T13:07:14;4.18;;;2.72;;
30635;SDS011;17400;52.392;9.750;2023-06-26T13:09:42;5.10;;;3.65;;
30635;SDS011;17400;52.392;9.750;2023-06-26T13:12:12;6.63;;;3.10;;
30635;SDS011;17400;52.392;9.750;2023-06-26T13:14:41;5.43;;;3.53;;
30635;SDS011;17400;52.392;9.750;2023-06-26T13:17:10;6.22;;;3.70;;
30635;SDS011;17400;52.392;9.750;2023-06-26T13:19:38;6.60;;;3.20;;
30635;SDS011;17400;52.392;9.750;2023-06-26T13:22:06;6.43;;;2.90;;
30635;SDS011;17400;52.392;9.750;2023-06-26T13:24:34;9.02;;;3.05;;
30635;SDS011;17400;52.392;9.750;2023-06-26T13:27:02;4.93;;;2.70;;
30635;SDS011;17400;52.392;9.750;2023-06-26T13:29:31;4.05;;;2.70;;
30635;SDS011;17400;52.392;9.750;2023-06-26T13:32:00;3.20;;;1.92;;
30635;SDS011;17400;52.392;9.750;2023-06-26T13:34:29;4.18;;;2.40;;
30635;SDS011;17400;52.392;9.750;2023-06-26T13:36:57;5.95;;;3.05;;
30635;SDS011;17400;52.392;9.750;2023-06-26T13:39:26;4.45;;;2.63;;
30635;SDS011;17400;52.392;9.750;2023-06-26T13:41:54;4.78;;;2.60;;
30635;SDS011;17400;52.392;9.750;2023-06-26T13:44:23;3.35;;;2.20;;
30635;SDS011;17400;52.392;9.750;2023-06-26T13:47:08;2.97;;;2.25;;
30635;SDS011;17400;52.392;9.750;2023-06-26T13:49:37;5.55;;;2.65;;
30635;SDS011;17400;52.392;9.750;2023-06-26T13:52:05;5.68;;;2.40;;
30635;SDS011;17400;52.392;9.750;2023-06-26T13:54:34;3.45;;;2.58;;
30635;SDS011;17400;52.392;9.750;2023-06-26T13:57:03;3.25;;;1.98;;
30635;SDS011;17400;52.392;9.750;2023-06-26T13:59:31;3.95;;;2.25;;
30635;SDS011;17400;52.392;9.750;2023-06-26T14:02:00;5.40;;;2.47;;
30635;SDS011;17400;52.392;9.750;2023-06-26T14:04:30;4.13;;;2.60;;
30635;SDS011;17400;52.392;9.750;2023-06-26T14:06:58;4.45;;;2.17;;
30635;SDS011;17400;52.392;9.750;2023-06-26T14:09:26;2.97;;;2.38;;
30635;SDS011;17400;52.392;9.750;2023-06-26T14:11:54;3.72;;;2.28;;
30635;SDS011;17400;52.392;9.750;2023-06-26T14:14:22;5.05;;;2.45;;
30635;SDS011;17400;52.392;9.750;2023-06-26T14:16:51;3.17;;;1.70;;
30635;SDS011;17400;52.392;9.750;2023-06-26T14:19:19;2.95;;;1.95;;
30635;SDS011;17400;52.392;9.750;2023-06-26T14:21:48;4.53;;;2.28;;
30635;SDS011;17400;52.392;9.750;2023-06-26T14:24:16;3.97;;;2.20;;
30635;SDS011;17400;52.392;9.750;2023-06-26T14:26:44;2.55;;;1.98;;
30635;SDS011;17400;52.392;9.750;2023-06-26T14:29:14;4.45;;;1.85;;
30635;SDS011;17400;52.392;9.750;2023-06-26T14:31:43;3.00;;;2.03;;
30635;SDS011;17400;52.392;9.750;2023-06-26T14:34:16;2.95;;;1.95;;
30635;SDS011;17400;52.392;9.750;2023-06-26T14:36:44;3.50;;;2.08;;
30635;SDS011;17400;52.392;9.750;2023-06-26T14:39:13;4.03;;;2.00;;
30635;SDS011;17400;52.392;9.750;2023-06-26T14:41:41;5.32;;;2.15;;
30635;SDS011;17400;52.392;9.750;2023-06-26T14:44:10;3.03;;;2.15;;
30635;SDS011;17400;52.392;9.750;2023-06-26T14:46:38;3.83;;;1.92;;
30635;SDS011;17400;52.392;9.750;2023-06-26T14:49:06;2.92;;;2.03;;
30635;SDS011;17400;52.392;9.750;2023-06-26T14:51:34;5.93;;;2.08;;
30635;SDS011;17400;52.392;9.750;2023-06-26T14:54:04;2.80;;;1.77;;
30635;SDS011;17400;52.392;9.750;2023-06-26T14:56:33;4.18;;;1.95;;
30635;SDS011;17400;52.392;9.750;2023-06-26T14:59:01;3.95;;;1.48;;
30635;SDS011;17400;52.392;9.750;2023-06-26T15:01:29;3.35;;;1.83;;
30635;SDS011;17400;52.392;9.750;2023-06-26T15:03:57;3.55;;;1.95;;
30635;SDS011;17400;52.392;9.750;2023-06-26T15:06:25;4.82;;;1.83;;